sensor_id;sensor_type;location;lat;lon;timestamp;P1;durP1;ratioP1;P2;durP2;ratioP2
71383;SDS011;67558;52.166;5.004;2023-04-15T00:01:48;12.15;;;11.23;;
71383;SDS011;67558;52.166;5.004;2023-04-15T00:04:13;11.20;;;10.30;;
71383;SDS011;67558;52.166;5.004;2023-04-15T00:06:38;11.02;;;10.32;;
71383;SDS011;67558;52.166;5.004;2023-04-15T00:09:04;10.15;;;9.40;;
71383;SDS011;67558;52.166;5.004;2023-04-15T00:11:29;11.65;;;10.95;;
71383;SDS011;67558;52.166;5.004;2023-04-15T00:13:55;12.48;;;11.40;;
71383;SDS011;67558;52.166;5.004;2023-04-15T00:16:20;10.43;;;9.63;;
71383;SDS011;67558;52.166;5.004;2023-04-15T00:18:46;10.70;;;10.00;;
71383;SDS011;67558;52.166;5.004;2023-04-15T00:21:11;11.02;;;10.18;;
71383;SDS011;67558;52.166;5.004;2023-04-15T00:23:36;11.85;;;11.05;;
71383;SDS011;67558;52.166;5.004;2023-04-15T00:26:02;11.43;;;10.75;;
71383;SDS011;67558;52.166;5.004;2023-04-15T00:28:27;11.27;;;10.57;;
71383;SDS011;67558;52.166;5.004;2023-04-15T00:30:53;12.85;;;11.93;;
71383;SDS011;67558;52.166;5.004;2023-04-15T00:33:19;13.27;;;12.55;;
71383;SDS011;67558;52.166;5.004;2023-04-15T00:35:44;10.75;;;10.20;;
71383;SDS011;67558;52.166;5.004;2023-04-15T00:38:09;11.05;;;10.32;;
71383;SDS011;67558;52.166;5.004;2023-04-15T00:40:35;12.13;;;11.32;;
71383;SDS011;67558;52.166;5.004;2023-04-15T00:43:01;10.77;;;10.15;;
71383;SDS011;67558;52.166;5.004;2023-04-15T00:45:29;8.43;;;7.68;;
71383;SDS011;67558;52.166;5.004;2023-04-15T00:47:54;12.70;;;11.98;;
71383;SDS011;67558;52.166;5.004;2023-04-15T00:50:20;11.65;;;10.98;;
71383;SDS011;67558;52.166;5.004;2023-04-15T00:52:46;12.93;;;11.85;;
71383;SDS011;67558;52.166;5.004;2023-04-15T00:55:12;13.25;;;12.27;;
71383;SDS011;67558;52.166;5.004;2023-04-15T00:57:38;10.50;;;9.77;;
71383;SDS011;67558;52.166;5.004;2023-04-15T01:00:04;13.95;;;13.02;;
71383;SDS011;67558;52.166;5.004;2023-04-15T01:02:33;11.55;;;10.85;;
71383;SDS011;67558;52.166;5.004;2023-04-15T01:04:59;12.43;;;11.52;;
71383;SDS011;67558;52.166;5.004;2023-04-15T01:07:24;12.63;;;11.73;;
71383;SDS011;67558;52.166;5.004;2023-04-15T01:09:50;12.23;;;11.32;;
71383;SDS011;67558;52.166;5.004;2023-04-15T01:12:16;10.70;;;9.90;;
71383;SDS011;67558;52.166;5.004;2023-04-15T01:14:43;13.02;;;12.30;;
71383;SDS011;67558;52.166;5.004;2023-04-15T01:17:09;11.45;;;10.75;;
71383;SDS011;67558;52.166;5.004;2023-04-15T01:19:35;11.07;;;10.38;;
71383;SDS011;67558;52.166;5.004;2023-04-15T01:22:01;11.27;;;10.50;;
71383;SDS011;67558;52.166;5.004;2023-04-15T01:24:27;6.53;;;5.75;;
71383;SDS011;67558;52.166;5.004;2023-04-15T01:26:55;9.93;;;9.32;;
71383;SDS011;67558;52.166;5.004;2023-04-15T01:29:20;11.45;;;10.55;;
71383;SDS011;67558;52.166;5.004;2023-04-15T01:31:50;10.63;;;9.50;;
71383;SDS011;67558;52.166;5.004;2023-04-15T01:34:17;11.02;;;10.32;;
71383;SDS011;67558;52.166;5.004;2023-04-15T01:36:43;9.82;;;9.13;;
71383;SDS011;67558;52.166;5.004;2023-04-15T01:39:08;10.52;;;9.82;;
71383;SDS011;67558;52.166;5.004;2023-04-15T01:41:33;12.00;;;11.20;;
71383;SDS011;67558;52.166;5.004;2023-04-15T01:43:59;12.82;;;12.13;;
71383;SDS011;67558;52.166;5.004;2023-04-15T01:46:25;10.50;;;9.70;;
71383;SDS011;67558;52.166;5.004;2023-04-15T01:48:50;10.82;;;10.23;;
71383;SDS011;67558;52.166;5.004;2023-04-15T01:51:16;11.18;;;10.32;;
71383;SDS011;67558;52.166;5.004;2023-04-15T01:53:42;11.77;;;10.88;;
71383;SDS011;67558;52.166;5.004;2023-04-15T01:56:07;11.10;;;10.45;;
71383;SDS011;67558;52.166;5.004;2023-04-15T01:58:33;12.88;;;12.18;;
71383;SDS011;67558;52.166;5.004;2023-04-15T02:00:58;10.95;;;10.15;;
71383;SDS011;67558;52.166;5.004;2023-04-15T02:03:23;11.45;;;10.55;;
71383;SDS011;67558;52.166;5.004;2023-04-15T02:05:49;11.18;;;10.18;;
71383;SDS011;67558;52.166;5.004;2023-04-15T02:08:15;10.60;;;9.90;;
71383;SDS011;67558;52.166;5.004;2023-04-15T02:10:41;10.75;;;10.05;;
71383;SDS011;67558;52.166;5.004;2023-04-15T02:13:06;10.35;;;9.43;;
71383;SDS011;67558;52.166;5.004;2023-04-15T02:15:32;9.57;;;8.88;;
71383;SDS011;67558;52.166;5.004;2023-04-15T02:17:57;9.63;;;8.75;;
71383;SDS011;67558;52.166;5.004;2023-04-15T02:20:24;11.20;;;10.23;;
71383;SDS011;67558;52.166;5.004;2023-04-15T02:22:50;11.32;;;10.48;;
71383;SDS011;67558;52.166;5.004;2023-04-15T02:25:16;10.80;;;10.10;;
71383;SDS011;67558;52.166;5.004;2023-04-15T02:27:42;10.48;;;9.57;;
71383;SDS011;67558;52.166;5.004;2023-04-15T02:30:08;11.10;;;10.40;;
71383;SDS011;67558;52.166;5.004;2023-04-15T02:32:34;10.65;;;9.82;;
71383;SDS011;67558;52.166;5.004;2023-04-15T02:35:05;12.13;;;11.32;;
71383;SDS011;67558;52.166;5.004;2023-04-15T02:37:34;10.75;;;9.70;;
71383;SDS011;67558;52.166;5.004;2023-04-15T02:40:04;10.73;;;9.93;;
71383;SDS011;67558;52.166;5.004;2023-04-15T02:42:31;6.22;;;5.63;;
71383;SDS011;67558;52.166;5.004;2023-04-15T02:44:57;10.30;;;9.40;;
71383;SDS011;67558;52.166;5.004;2023-04-15T02:47:22;10.68;;;9.63;;
71383;SDS011;67558;52.166;5.004;2023-04-15T02:49:47;10.73;;;9.95;;
71383;SDS011;67558;52.166;5.004;2023-04-15T02:52:13;10.55;;;9.65;;
71383;SDS011;67558;52.166;5.004;2023-04-15T02:54:38;9.70;;;9.00;;
71383;SDS011;67558;52.166;5.004;2023-04-15T02:57:04;11.00;;;10.15;;
71383;SDS011;67558;52.166;5.004;2023-04-15T02:59:30;11.13;;;10.20;;
71383;SDS011;67558;52.166;5.004;2023-04-15T03:01:56;9.20;;;8.60;;
71383;SDS011;67558;52.166;5.004;2023-04-15T03:04:24;10.20;;;9.57;;
71383;SDS011;67558;52.166;5.004;2023-04-15T03:06:50;11.18;;;10.48;;
71383;SDS011;67558;52.166;5.004;2023-04-15T03:09:15;10.70;;;9.63;;
71383;SDS011;67558;52.166;5.004;2023-04-15T03:11:41;9.68;;;9.05;;
71383;SDS011;67558;52.166;5.004;2023-04-15T03:14:06;10.30;;;9.50;;
71383;SDS011;67558;52.166;5.004;2023-04-15T03:16:31;6.05;;;5.47;;
71383;SDS011;67558;52.166;5.004;2023-04-15T03:18:57;6.47;;;5.70;;
71383;SDS011;67558;52.166;5.004;2023-04-15T03:21:22;10.02;;;9.27;;
71383;SDS011;67558;52.166;5.004;2023-04-15T03:23:47;9.55;;;8.70;;
71383;SDS011;67558;52.166;5.004;2023-04-15T03:26:23;8.88;;;8.23;;
71383;SDS011;67558;52.166;5.004;2023-04-15T03:28:55;9.65;;;8.65;;
71383;SDS011;67558;52.166;5.004;2023-04-15T03:31:21;9.55;;;8.85;;
71383;SDS011;67558;52.166;5.004;2023-04-15T03:33:46;9.68;;;8.93;;
71383;SDS011;67558;52.166;5.004;2023-04-15T03:36:12;9.43;;;8.52;;
71383;SDS011;67558;52.166;5.004;2023-04-15T03:38:37;9.02;;;8.43;;
71383;SDS011;67558;52.166;5.004;2023-04-15T03:41:03;9.52;;;8.73;;
71383;SDS011;67558;52.166;5.004;2023-04-15T03:43:29;10.10;;;9.40;;
71383;SDS011;67558;52.166;5.004;2023-04-15T03:45:54;10.40;;;9.52;;
71383;SDS011;67558;52.166;5.004;2023-04-15T03:48:19;9.23;;;8.32;;
71383;SDS011;67558;52.166;5.004;2023-04-15T03:50:45;9.20;;;8.50;;
71383;SDS011;67558;52.166;5.004;2023-04-15T03:53:10;7.43;;;6.63;;
71383;SDS011;67558;52.166;5.004;2023-04-15T03:55:35;9.35;;;8.70;;
71383;SDS011;67558;52.166;5.004;2023-04-15T03:58:01;10.07;;;9.27;;
71383;SDS011;67558;52.166;5.004;2023-04-15T04:00:27;9.55;;;8.95;;
71383;SDS011;67558;52.166;5.004;2023-04-15T04:02:52;9.48;;;8.68;;
71383;SDS011;67558;52.166;5.004;2023-04-15T04:05:17;7.55;;;6.70;;
71383;SDS011;67558;52.166;5.004;2023-04-15T04:07:43;8.98;;;8.32;;
71383;SDS011;67558;52.166;5.004;2023-04-15T04:10:08;8.90;;;6.03;;
71383;SDS011;67558;52.166;5.004;2023-04-15T04:12:34;9.40;;;8.60;;
71383;SDS011;67558;52.166;5.004;2023-04-15T04:14:59;10.35;;;9.35;;
71383;SDS011;67558;52.166;5.004;2023-04-15T04:17:24;8.23;;;7.55;;
71383;SDS011;67558;52.166;5.004;2023-04-15T04:19:50;10.65;;;8.52;;
71383;SDS011;67558;52.166;5.004;2023-04-15T04:22:16;9.40;;;8.65;;
71383;SDS011;67558;52.166;5.004;2023-04-15T04:24:41;9.82;;;8.93;;
71383;SDS011;67558;52.166;5.004;2023-04-15T04:27:06;9.15;;;8.45;;
71383;SDS011;67558;52.166;5.004;2023-04-15T04:29:32;8.52;;;7.80;;
71383;SDS011;67558;52.166;5.004;2023-04-15T04:31:57;9.77;;;8.63;;
71383;SDS011;67558;52.166;5.004;2023-04-15T04:34:22;6.95;;;5.93;;
71383;SDS011;67558;52.166;5.004;2023-04-15T04:36:48;8.35;;;7.82;;
71383;SDS011;67558;52.166;5.004;2023-04-15T04:39:13;9.85;;;9.05;;
71383;SDS011;67558;52.166;5.004;2023-04-15T04:41:38;6.88;;;6.10;;
71383;SDS011;67558;52.166;5.004;2023-04-15T04:44:04;9.35;;;8.48;;
71383;SDS011;67558;52.166;5.004;2023-04-15T04:46:29;8.93;;;8.25;;
71383;SDS011;67558;52.166;5.004;2023-04-15T04:48:54;8.43;;;7.82;;
71383;SDS011;67558;52.166;5.004;2023-04-15T04:51:20;9.35;;;8.45;;
71383;SDS011;67558;52.166;5.004;2023-04-15T04:53:45;10.63;;;8.68;;
71383;SDS011;67558;52.166;5.004;2023-04-15T04:56:10;10.25;;;9.43;;
71383;SDS011;67558;52.166;5.004;2023-04-15T04:58:36;10.02;;;8.85;;
71383;SDS011;67558;52.166;5.004;2023-04-15T05:01:02;8.82;;;8.23;;
71383;SDS011;67558;52.166;5.004;2023-04-15T05:03:27;10.38;;;9.57;;
71383;SDS011;67558;52.166;5.004;2023-04-15T05:05:53;9.10;;;8.45;;
71383;SDS011;67558;52.166;5.004;2023-04-15T05:08:18;9.52;;;8.40;;
71383;SDS011;67558;52.166;5.004;2023-04-15T05:10:44;10.63;;;9.77;;
71383;SDS011;67558;52.166;5.004;2023-04-15T05:13:09;11.30;;;10.07;;
71383;SDS011;67558;52.166;5.004;2023-04-15T05:15:35;10.30;;;9.05;;
71383;SDS011;67558;52.166;5.004;2023-04-15T05:18:03;10.45;;;9.57;;
71383;SDS011;67558;52.166;5.004;2023-04-15T05:20:29;9.10;;;8.30;;
71383;SDS011;67558;52.166;5.004;2023-04-15T05:22:54;11.05;;;9.90;;
71383;SDS011;67558;52.166;5.004;2023-04-15T05:25:19;7.25;;;6.03;;
71383;SDS011;67558;52.166;5.004;2023-04-15T05:27:45;11.05;;;10.25;;
71383;SDS011;67558;52.166;5.004;2023-04-15T05:30:10;9.57;;;8.88;;
71383;SDS011;67558;52.166;5.004;2023-04-15T05:32:36;9.38;;;8.30;;
71383;SDS011;67558;52.166;5.004;2023-04-15T05:35:01;9.65;;;8.82;;
71383;SDS011;67558;52.166;5.004;2023-04-15T05:37:27;9.45;;;8.60;;
71383;SDS011;67558;52.166;5.004;2023-04-15T05:39:52;9.00;;;8.20;;
71383;SDS011;67558;52.166;5.004;2023-04-15T05:42:17;10.15;;;9.15;;
71383;SDS011;67558;52.166;5.004;2023-04-15T05:44:43;7.18;;;6.47;;
71383;SDS011;67558;52.166;5.004;2023-04-15T05:47:08;10.85;;;9.73;;
71383;SDS011;67558;52.166;5.004;2023-04-15T05:49:34;9.13;;;6.68;;
71383;SDS011;67558;52.166;5.004;2023-04-15T05:52:00;9.02;;;6.38;;
71383;SDS011;67558;52.166;5.004;2023-04-15T05:54:26;8.82;;;8.18;;
71383;SDS011;67558;52.166;5.004;2023-04-15T05:56:51;10.00;;;9.20;;
71383;SDS011;67558;52.166;5.004;2023-04-15T05:59:17;10.35;;;9.43;;
71383;SDS011;67558;52.166;5.004;2023-04-15T06:01:43;11.45;;;10.15;;
71383;SDS011;67558;52.166;5.004;2023-04-15T06:04:09;10.68;;;9.73;;
71383;SDS011;67558;52.166;5.004;2023-04-15T06:06:35;12.32;;;11.15;;
71383;SDS011;67558;52.166;5.004;2023-04-15T06:09:01;9.93;;;9.30;;
71383;SDS011;67558;52.166;5.004;2023-04-15T06:11:26;11.63;;;10.70;;
71383;SDS011;67558;52.166;5.004;2023-04-15T06:13:52;13.77;;;12.80;;
71383;SDS011;67558;52.166;5.004;2023-04-15T06:16:17;12.25;;;11.30;;
71383;SDS011;67558;52.166;5.004;2023-04-15T06:18:42;13.93;;;12.82;;
71383;SDS011;67558;52.166;5.004;2023-04-15T06:21:08;12.23;;;11.25;;
71383;SDS011;67558;52.166;5.004;2023-04-15T06:23:34;14.00;;;13.00;;
71383;SDS011;67558;52.166;5.004;2023-04-15T06:26:00;12.13;;;11.32;;
71383;SDS011;67558;52.166;5.004;2023-04-15T06:28:26;13.60;;;12.52;;
71383;SDS011;67558;52.166;5.004;2023-04-15T06:30:53;8.65;;;7.88;;
71383;SDS011;67558;52.166;5.004;2023-04-15T06:33:20;12.77;;;12.00;;
71383;SDS011;67558;52.166;5.004;2023-04-15T06:35:46;13.88;;;12.77;;
71383;SDS011;67558;52.166;5.004;2023-04-15T06:38:13;12.63;;;11.77;;
71383;SDS011;67558;52.166;5.004;2023-04-15T06:40:39;13.13;;;12.27;;
71383;SDS011;67558;52.166;5.004;2023-04-15T06:43:05;14.30;;;13.23;;
71383;SDS011;67558;52.166;5.004;2023-04-15T06:45:31;14.40;;;13.25;;
71383;SDS011;67558;52.166;5.004;2023-04-15T06:47:56;14.13;;;13.02;;
71383;SDS011;67558;52.166;5.004;2023-04-15T06:50:22;13.98;;;12.65;;
71383;SDS011;67558;52.166;5.004;2023-04-15T06:52:48;14.68;;;13.68;;
71383;SDS011;67558;52.166;5.004;2023-04-15T06:55:13;14.35;;;13.20;;
71383;SDS011;67558;52.166;5.004;2023-04-15T06:57:39;14.05;;;13.15;;
71383;SDS011;67558;52.166;5.004;2023-04-15T07:00:04;14.98;;;13.80;;
71383;SDS011;67558;52.166;5.004;2023-04-15T07:02:31;14.48;;;13.57;;
71383;SDS011;67558;52.166;5.004;2023-04-15T07:04:57;14.88;;;13.88;;
71383;SDS011;67558;52.166;5.004;2023-04-15T07:07:22;15.57;;;14.52;;
71383;SDS011;67558;52.166;5.004;2023-04-15T07:09:47;14.43;;;13.32;;
71383;SDS011;67558;52.166;5.004;2023-04-15T07:12:12;14.05;;;12.88;;
71383;SDS011;67558;52.166;5.004;2023-04-15T07:14:38;15.65;;;14.43;;
71383;SDS011;67558;52.166;5.004;2023-04-15T07:17:03;13.80;;;12.70;;
71383;SDS011;67558;52.166;5.004;2023-04-15T07:19:29;14.73;;;13.52;;
71383;SDS011;67558;52.166;5.004;2023-04-15T07:21:54;15.05;;;13.85;;
71383;SDS011;67558;52.166;5.004;2023-04-15T07:24:19;15.95;;;14.82;;
71383;SDS011;67558;52.166;5.004;2023-04-15T07:26:47;17.67;;;16.48;;
71383;SDS011;67558;52.166;5.004;2023-04-15T07:29:12;16.33;;;14.82;;
71383;SDS011;67558;52.166;5.004;2023-04-15T07:31:38;15.75;;;14.65;;
71383;SDS011;67558;52.166;5.004;2023-04-15T07:34:05;16.60;;;15.50;;
71383;SDS011;67558;52.166;5.004;2023-04-15T07:36:31;15.52;;;14.35;;
71383;SDS011;67558;52.166;5.004;2023-04-15T07:38:57;14.88;;;13.85;;
71383;SDS011;67558;52.166;5.004;2023-04-15T07:41:22;15.90;;;15.00;;
71383;SDS011;67558;52.166;5.004;2023-04-15T07:43:47;15.35;;;14.30;;
71383;SDS011;67558;52.166;5.004;2023-04-15T07:46:14;16.27;;;15.23;;
71383;SDS011;67558;52.166;5.004;2023-04-15T07:48:39;16.55;;;15.60;;
71383;SDS011;67558;52.166;5.004;2023-04-15T07:51:05;13.82;;;13.00;;
71383;SDS011;67558;52.166;5.004;2023-04-15T07:53:30;13.65;;;12.77;;
71383;SDS011;67558;52.166;5.004;2023-04-15T07:55:56;15.10;;;14.02;;
71383;SDS011;67558;52.166;5.004;2023-04-15T07:58:22;13.45;;;12.55;;
71383;SDS011;67558;52.166;5.004;2023-04-15T08:00:48;10.40;;;9.20;;
71383;SDS011;67558;52.166;5.004;2023-04-15T08:03:13;15.30;;;14.43;;
71383;SDS011;67558;52.166;5.004;2023-04-15T08:05:39;14.32;;;13.52;;
71383;SDS011;67558;52.166;5.004;2023-04-15T08:08:05;15.75;;;14.85;;
71383;SDS011;67558;52.166;5.004;2023-04-15T08:10:31;12.88;;;11.90;;
71383;SDS011;67558;52.166;5.004;2023-04-15T08:12:56;14.23;;;13.52;;
71383;SDS011;67558;52.166;5.004;2023-04-15T08:15:22;13.70;;;12.95;;
71383;SDS011;67558;52.166;5.004;2023-04-15T08:17:48;10.75;;;9.95;;
71383;SDS011;67558;52.166;5.004;2023-04-15T08:20:13;14.23;;;13.43;;
71383;SDS011;67558;52.166;5.004;2023-04-15T08:22:39;15.80;;;14.55;;
71383;SDS011;67558;52.166;5.004;2023-04-15T08:25:05;14.77;;;13.77;;
71383;SDS011;67558;52.166;5.004;2023-04-15T08:27:30;18.08;;;17.05;;
71383;SDS011;67558;52.166;5.004;2023-04-15T08:29:56;14.27;;;13.32;;
71383;SDS011;67558;52.166;5.004;2023-04-15T08:32:21;15.55;;;14.55;;
71383;SDS011;67558;52.166;5.004;2023-04-15T08:34:47;15.55;;;14.48;;
71383;SDS011;67558;52.166;5.004;2023-04-15T08:37:12;15.52;;;14.65;;
71383;SDS011;67558;52.166;5.004;2023-04-15T08:39:38;16.10;;;15.00;;
71383;SDS011;67558;52.166;5.004;2023-04-15T08:42:03;17.15;;;16.13;;
71383;SDS011;67558;52.166;5.004;2023-04-15T08:44:36;14.70;;;13.82;;
71383;SDS011;67558;52.166;5.004;2023-04-15T08:47:02;14.60;;;13.75;;
71383;SDS011;67558;52.166;5.004;2023-04-15T08:49:31;15.30;;;14.25;;
71383;SDS011;67558;52.166;5.004;2023-04-15T08:51:57;15.57;;;14.48;;
71383;SDS011;67558;52.166;5.004;2023-04-15T08:54:23;14.23;;;13.52;;
71383;SDS011;67558;52.166;5.004;2023-04-15T08:56:49;15.77;;;14.98;;
71383;SDS011;67558;52.166;5.004;2023-04-15T08:59:14;14.73;;;14.00;;
71383;SDS011;67558;52.166;5.004;2023-04-15T09:01:43;14.93;;;13.90;;
71383;SDS011;67558;52.166;5.004;2023-04-15T09:04:10;12.80;;;12.15;;
71383;SDS011;67558;52.166;5.004;2023-04-15T09:06:36;13.77;;;13.10;;
71383;SDS011;67558;52.166;5.004;2023-04-15T09:09:03;14.30;;;13.52;;
71383;SDS011;67558;52.166;5.004;2023-04-15T09:11:30;13.68;;;12.80;;
71383;SDS011;67558;52.166;5.004;2023-04-15T09:13:56;12.88;;;12.10;;
71383;SDS011;67558;52.166;5.004;2023-04-15T09:16:21;13.10;;;12.38;;
71383;SDS011;67558;52.166;5.004;2023-04-15T09:18:47;13.32;;;12.63;;
71383;SDS011;67558;52.166;5.004;2023-04-15T09:21:13;12.63;;;11.95;;
71383;SDS011;67558;52.166;5.004;2023-04-15T09:23:41;13.38;;;12.68;;
71383;SDS011;67558;52.166;5.004;2023-04-15T09:26:28;13.35;;;12.55;;
71383;SDS011;67558;52.166;5.004;2023-04-15T09:28:56;13.25;;;12.55;;
71383;SDS011;67558;52.166;5.004;2023-04-15T09:31:28;15.38;;;14.60;;
71383;SDS011;67558;52.166;5.004;2023-04-15T09:33:55;13.57;;;12.88;;
71383;SDS011;67558;52.166;5.004;2023-04-15T09:36:21;14.25;;;13.50;;
71383;SDS011;67558;52.166;5.004;2023-04-15T09:38:55;12.80;;;11.95;;
71383;SDS011;67558;52.166;5.004;2023-04-15T09:41:22;13.70;;;13.00;;
71383;SDS011;67558;52.166;5.004;2023-04-15T09:43:48;13.60;;;12.82;;
71383;SDS011;67558;52.166;5.004;2023-04-15T09:46:14;14.65;;;13.95;;
71383;SDS011;67558;52.166;5.004;2023-04-15T09:48:40;13.30;;;12.70;;
71383;SDS011;67558;52.166;5.004;2023-04-15T09:51:05;12.48;;;11.88;;
71383;SDS011;67558;52.166;5.004;2023-04-15T09:53:32;14.80;;;14.10;;
71383;SDS011;67558;52.166;5.004;2023-04-15T09:56:00;13.13;;;12.50;;
71383;SDS011;67558;52.166;5.004;2023-04-15T09:58:30;13.13;;;12.52;;
71383;SDS011;67558;52.166;5.004;2023-04-15T10:00:57;13.00;;;12.48;;
71383;SDS011;67558;52.166;5.004;2023-04-15T10:03:28;14.27;;;13.70;;
71383;SDS011;67558;52.166;5.004;2023-04-15T10:05:56;14.10;;;13.45;;
71383;SDS011;67558;52.166;5.004;2023-04-15T10:08:24;12.77;;;12.23;;
71383;SDS011;67558;52.166;5.004;2023-04-15T10:10:52;12.63;;;12.13;;
71383;SDS011;67558;52.166;5.004;2023-04-15T10:13:18;13.60;;;13.10;;
71383;SDS011;67558;52.166;5.004;2023-04-15T10:15:49;15.13;;;14.52;;
71383;SDS011;67558;52.166;5.004;2023-04-15T10:18:16;14.50;;;13.77;;
71383;SDS011;67558;52.166;5.004;2023-04-15T10:20:45;15.18;;;14.57;;
71383;SDS011;67558;52.166;5.004;2023-04-15T10:23:12;13.95;;;13.45;;
71383;SDS011;67558;52.166;5.004;2023-04-15T10:25:39;14.93;;;14.32;;
71383;SDS011;67558;52.166;5.004;2023-04-15T10:28:07;14.75;;;14.10;;
71383;SDS011;67558;52.166;5.004;2023-04-15T10:30:33;16.95;;;16.20;;
71383;SDS011;67558;52.166;5.004;2023-04-15T10:33:00;16.92;;;16.23;;
71383;SDS011;67558;52.166;5.004;2023-04-15T10:35:28;15.00;;;14.20;;
71383;SDS011;67558;52.166;5.004;2023-04-15T10:37:54;15.13;;;14.35;;
71383;SDS011;67558;52.166;5.004;2023-04-15T10:40:24;14.13;;;13.63;;
71383;SDS011;67558;52.166;5.004;2023-04-15T10:42:56;14.15;;;13.35;;
71383;SDS011;67558;52.166;5.004;2023-04-15T10:45:27;14.30;;;13.65;;
71383;SDS011;67558;52.166;5.004;2023-04-15T10:47:56;13.90;;;13.15;;
71383;SDS011;67558;52.166;5.004;2023-04-15T10:50:26;14.27;;;13.45;;
71383;SDS011;67558;52.166;5.004;2023-04-15T10:52:52;13.52;;;12.93;;
71383;SDS011;67558;52.166;5.004;2023-04-15T10:55:19;18.17;;;17.42;;
71383;SDS011;67558;52.166;5.004;2023-04-15T10:57:45;14.38;;;13.43;;
71383;SDS011;67558;52.166;5.004;2023-04-15T11:00:15;17.23;;;16.38;;
71383;SDS011;67558;52.166;5.004;2023-04-15T11:05:08;15.25;;;14.35;;
71383;SDS011;67558;52.166;5.004;2023-04-15T11:12:38;15.45;;;14.65;;
71383;SDS011;67558;52.166;5.004;2023-04-15T11:17:52;10.48;;;9.68;;
71383;SDS011;67558;52.166;5.004;2023-04-15T11:20:18;13.07;;;12.45;;
71383;SDS011;67558;52.166;5.004;2023-04-15T11:22:50;15.25;;;14.43;;
71383;SDS011;67558;52.166;5.004;2023-04-15T11:25:23;15.18;;;14.18;;
71383;SDS011;67558;52.166;5.004;2023-04-15T11:27:53;14.55;;;13.55;;
71383;SDS011;67558;52.166;5.004;2023-04-15T11:30:20;14.75;;;13.55;;
71383;SDS011;67558;52.166;5.004;2023-04-15T11:32:49;15.38;;;14.25;;
71383;SDS011;67558;52.166;5.004;2023-04-15T11:35:17;13.77;;;13.13;;
71383;SDS011;67558;52.166;5.004;2023-04-15T11:37:46;14.13;;;13.38;;
71383;SDS011;67558;52.166;5.004;2023-04-15T11:40:13;14.65;;;14.05;;
71383;SDS011;67558;52.166;5.004;2023-04-15T11:42:41;15.38;;;14.73;;
71383;SDS011;67558;52.166;5.004;2023-04-15T11:47:33;12.95;;;12.45;;
71383;SDS011;67558;52.166;5.004;2023-04-15T11:50:19;13.38;;;12.88;;
71383;SDS011;67558;52.166;5.004;2023-04-15T11:55:27;14.90;;;14.30;;
71383;SDS011;67558;52.166;5.004;2023-04-15T12:00:34;14.10;;;13.50;;
71383;SDS011;67558;52.166;5.004;2023-04-15T12:03:19;16.60;;;15.90;;
71383;SDS011;67558;52.166;5.004;2023-04-15T12:06:03;14.63;;;14.02;;
71383;SDS011;67558;52.166;5.004;2023-04-15T12:08:52;13.05;;;12.55;;
71383;SDS011;67558;52.166;5.004;2023-04-15T12:11:27;13.90;;;13.20;;
71383;SDS011;67558;52.166;5.004;2023-04-15T12:19:13;14.63;;;13.98;;
71383;SDS011;67558;52.166;5.004;2023-04-15T12:21:41;13.00;;;12.50;;
71383;SDS011;67558;52.166;5.004;2023-04-15T12:24:09;13.98;;;13.38;;
71383;SDS011;67558;52.166;5.004;2023-04-15T12:29:06;14.35;;;13.80;;
71383;SDS011;67558;52.166;5.004;2023-04-15T12:31:33;11.90;;;11.32;;
71383;SDS011;67558;52.166;5.004;2023-04-15T12:34:00;12.43;;;11.85;;
71383;SDS011;67558;52.166;5.004;2023-04-15T12:36:26;14.95;;;14.25;;
71383;SDS011;67558;52.166;5.004;2023-04-15T12:38:52;12.60;;;12.00;;
71383;SDS011;67558;52.166;5.004;2023-04-15T12:41:18;13.73;;;13.02;;
71383;SDS011;67558;52.166;5.004;2023-04-15T12:43:45;13.07;;;12.52;;
71383;SDS011;67558;52.166;5.004;2023-04-15T12:46:11;13.63;;;12.93;;
71383;SDS011;67558;52.166;5.004;2023-04-15T12:48:37;13.45;;;12.80;;
71383;SDS011;67558;52.166;5.004;2023-04-15T12:51:02;12.55;;;11.88;;
71383;SDS011;67558;52.166;5.004;2023-04-15T12:53:28;13.40;;;12.80;;
71383;SDS011;67558;52.166;5.004;2023-04-15T12:55:53;13.07;;;12.48;;
71383;SDS011;67558;52.166;5.004;2023-04-15T12:58:19;15.70;;;15.10;;
71383;SDS011;67558;52.166;5.004;2023-04-15T13:00:45;12.98;;;12.27;;
71383;SDS011;67558;52.166;5.004;2023-04-15T13:03:11;12.32;;;11.65;;
71383;SDS011;67558;52.166;5.004;2023-04-15T13:05:37;13.07;;;12.48;;
71383;SDS011;67558;52.166;5.004;2023-04-15T13:08:03;12.55;;;12.00;;
71383;SDS011;67558;52.166;5.004;2023-04-15T13:10:29;14.82;;;14.23;;
71383;SDS011;67558;52.166;5.004;2023-04-15T13:12:55;12.75;;;12.35;;
71383;SDS011;67558;52.166;5.004;2023-04-15T13:15:21;11.90;;;11.18;;
71383;SDS011;67558;52.166;5.004;2023-04-15T13:17:47;12.93;;;12.43;;
71383;SDS011;67558;52.166;5.004;2023-04-15T13:20:13;11.52;;;11.02;;
71383;SDS011;67558;52.166;5.004;2023-04-15T13:22:39;12.85;;;12.30;;
71383;SDS011;67558;52.166;5.004;2023-04-15T13:25:04;13.23;;;12.75;;
71383;SDS011;67558;52.166;5.004;2023-04-15T13:27:31;12.35;;;11.65;;
71383;SDS011;67558;52.166;5.004;2023-04-15T13:29:56;12.18;;;11.68;;
71383;SDS011;67558;52.166;5.004;2023-04-15T13:32:21;14.55;;;14.05;;
71383;SDS011;67558;52.166;5.004;2023-04-15T13:34:47;12.80;;;12.20;;
71383;SDS011;67558;52.166;5.004;2023-04-15T13:37:12;12.32;;;11.68;;
71383;SDS011;67558;52.166;5.004;2023-04-15T13:39:37;12.73;;;12.13;;
71383;SDS011;67558;52.166;5.004;2023-04-15T13:42:03;11.13;;;10.50;;
71383;SDS011;67558;52.166;5.004;2023-04-15T13:44:29;12.90;;;12.40;;
71383;SDS011;67558;52.166;5.004;2023-04-15T13:46:54;12.35;;;11.95;;
71383;SDS011;67558;52.166;5.004;2023-04-15T13:49:20;12.27;;;11.88;;
71383;SDS011;67558;52.166;5.004;2023-04-15T13:51:45;11.73;;;11.00;;
71383;SDS011;67558;52.166;5.004;2023-04-15T13:54:11;12.95;;;12.55;;
71383;SDS011;67558;52.166;5.004;2023-04-15T13:56:36;12.10;;;11.70;;
71383;SDS011;67558;52.166;5.004;2023-04-15T13:59:01;15.57;;;14.93;;
71383;SDS011;67558;52.166;5.004;2023-04-15T14:01:27;12.70;;;12.10;;
71383;SDS011;67558;52.166;5.004;2023-04-15T14:03:53;12.88;;;12.27;;
71383;SDS011;67558;52.166;5.004;2023-04-15T14:06:18;13.90;;;13.48;;
71383;SDS011;67558;52.166;5.004;2023-04-15T14:08:44;13.00;;;12.60;;
71383;SDS011;67558;52.166;5.004;2023-04-15T14:11:09;5.57;;;5.25;;
71383;SDS011;67558;52.166;5.004;2023-04-15T14:13:35;12.93;;;12.52;;
71383;SDS011;67558;52.166;5.004;2023-04-15T14:16:00;6.88;;;6.57;;
71383;SDS011;67558;52.166;5.004;2023-04-15T14:18:26;12.40;;;12.00;;
71383;SDS011;67558;52.166;5.004;2023-04-15T14:20:51;12.75;;;12.35;;
71383;SDS011;67558;52.166;5.004;2023-04-15T14:23:17;13.10;;;12.70;;
71383;SDS011;67558;52.166;5.004;2023-04-15T14:25:42;12.35;;;11.95;;
71383;SDS011;67558;52.166;5.004;2023-04-15T14:28:08;11.77;;;11.27;;
71383;SDS011;67558;52.166;5.004;2023-04-15T14:30:33;11.98;;;11.48;;
71383;SDS011;67558;52.166;5.004;2023-04-15T14:32:58;13.38;;;12.77;;
71383;SDS011;67558;52.166;5.004;2023-04-15T14:35:24;12.10;;;11.60;;
71383;SDS011;67558;52.166;5.004;2023-04-15T14:37:51;10.82;;;10.43;;
71383;SDS011;67558;52.166;5.004;2023-04-15T14:40:17;11.57;;;11.18;;
71383;SDS011;67558;52.166;5.004;2023-04-15T14:42:43;11.52;;;11.05;;
71383;SDS011;67558;52.166;5.004;2023-04-15T14:45:09;13.77;;;13.18;;
71383;SDS011;67558;52.166;5.004;2023-04-15T14:47:34;10.63;;;10.23;;
71383;SDS011;67558;52.166;5.004;2023-04-15T14:50:00;11.57;;;11.25;;